createdAt,value
2023-02-19T00:02:02.422Z,3.90
2023-02-19T00:04:31.840Z,2.60
2023-02-19T00:07:01.531Z,2.60
2023-02-19T00:09:28.269Z,2.33
2023-02-19T00:11:57.518Z,2.42
2023-02-19T00:14:27.229Z,2.80
2023-02-19T00:16:53.913Z,2.47
2023-02-19T00:23:06.028Z,2.25
2023-02-19T00:25:38.621Z,2.47
2023-02-19T00:28:05.674Z,2.15
2023-02-19T00:30:35.659Z,2.40
2023-02-19T00:33:04.656Z,2.78
2023-02-19T00:35:37.058Z,1.70
2023-02-19T00:38:04.926Z,1.95
2023-02-19T00:40:33.123Z,1.90
2023-02-19T00:43:02.238Z,2.70
2023-02-19T00:45:31.786Z,1.77
2023-02-19T00:48:00.824Z,2.97
2023-02-19T00:52:59.639Z,1.42
2023-02-19T00:55:28.703Z,1.67
2023-02-19T01:00:22.050Z,1.35
2023-02-19T01:02:51.463Z,1.60
2023-02-19T01:05:20.271Z,3.40
2023-02-19T01:07:46.878Z,1.90
2023-02-19T01:10:13.450Z,2.45
2023-02-19T01:12:40.121Z,2.80
2023-02-19T01:15:09.584Z,2.40
2023-02-19T01:17:38.930Z,2.10
2023-02-19T01:20:05.927Z,2.60
2023-02-19T01:22:32.780Z,2.80
2023-02-19T01:24:59.485Z,2.35
2023-02-19T01:27:28.359Z,1.88
2023-02-19T01:29:55.008Z,2.45
2023-02-19T01:32:24.061Z,2.30
2023-02-19T01:37:17.381Z,2.17
2023-02-19T01:39:44.071Z,2.08
2023-02-19T01:42:19.033Z,2.22
2023-02-19T01:44:48.146Z,2.15
2023-02-19T01:47:21.769Z,2.25
2023-02-19T01:49:58.660Z,4.20
2023-02-19T01:52:34.067Z,3.50
2023-02-19T01:55:09.909Z,2.30
2023-02-19T01:57:42.566Z,2.65
2023-02-19T02:00:14.472Z,2.70
2023-02-19T02:02:45.931Z,2.33
2023-02-19T02:05:53.801Z,3.88
2023-02-19T02:08:42.458Z,3.35
2023-02-19T02:11:11.676Z,3.80
2023-02-19T02:13:40.496Z,2.40
2023-02-19T02:16:28.263Z,3.78
2023-02-19T02:19:10.034Z,3.58
2023-02-19T02:22:04.728Z,2.13
2023-02-19T02:24:51.991Z,2.78
2023-02-19T02:27:41.032Z,2.78
2023-02-19T02:30:34.849Z,1.88
2023-02-19T02:33:26.678Z,1.75
2023-02-19T02:35:58.308Z,1.52
2023-02-19T02:38:31.078Z,2.00
2023-02-19T02:41:00.515Z,1.35
2023-02-19T02:43:27.397Z,1.77
2023-02-19T02:45:57.370Z,1.90
2023-02-19T02:48:44.990Z,1.73
2023-02-19T02:51:14.663Z,1.33
2023-02-19T02:54:14.175Z,1.90
2023-02-19T02:56:45.298Z,2.72
2023-02-19T02:59:14.805Z,2.25
2023-02-19T03:02:11.877Z,2.65
2023-02-19T03:05:11.396Z,2.35
2023-02-19T03:08:10.104Z,2.95
2023-02-19T03:10:43.320Z,2.83
2023-02-19T03:13:40.808Z,3.45
2023-02-19T03:16:51.434Z,3.70
2023-02-19T03:19:22.728Z,3.72
2023-02-19T03:22:09.984Z,4.38
2023-02-19T03:25:04.349Z,2.42
2023-02-19T03:27:33.951Z,3.97
2023-02-19T03:30:09.750Z,2.33
2023-02-19T03:33:08.337Z,2.72
2023-02-19T03:36:00.367Z,2.25
2023-02-19T03:38:37.340Z,3.17
2023-02-19T03:41:12.382Z,2.58
2023-02-19T03:43:52.460Z,2.20
2023-02-19T03:46:37.051Z,2.22
2023-02-19T03:49:12.894Z,2.38
2023-02-19T03:51:55.378Z,2.00
2023-02-19T03:54:40.269Z,1.40
2023-02-19T03:57:23.395Z,1.70
2023-02-19T04:00:04.313Z,1.55
2023-02-19T04:02:41.451Z,1.77
2023-02-19T04:05:14.621Z,3.50
2023-02-19T04:07:46.614Z,1.27
2023-02-19T04:10:26.144Z,1.85
2023-02-19T04:13:04.616Z,1.85
2023-02-19T04:15:34.397Z,1.80
2023-02-19T04:18:09.314Z,1.42
2023-02-19T04:20:42.769Z,1.58
2023-02-19T04:23:09.683Z,1.60
2023-02-19T04:25:45.622Z,1.38
2023-02-19T04:28:19.562Z,3.35
2023-02-19T04:30:47.034Z,1.63
2023-02-19T04:33:13.920Z,1.48
2023-02-19T04:35:43.112Z,2.20
2023-02-19T04:38:12.352Z,1.80
2023-02-19T04:40:40.249Z,4.18
2023-02-19T04:43:11.671Z,2.28
2023-02-19T04:45:40.768Z,3.22
2023-02-19T04:50:33.878Z,2.00
2023-02-19T04:53:05.480Z,2.30
2023-02-19T04:55:32.450Z,2.70
2023-02-19T04:58:04.296Z,2.67
2023-02-19T05:00:31.491Z,3.97
2023-02-19T05:03:01.173Z,2.60
2023-02-19T05:05:30.638Z,1.75
2023-02-19T05:07:59.905Z,2.45
2023-02-19T05:10:28.745Z,3.13
2023-02-19T05:13:00.520Z,2.67
2023-02-19T05:15:29.553Z,2.03
2023-02-19T05:17:56.474Z,2.28
2023-02-19T05:20:23.166Z,2.25
2023-02-19T05:22:52.154Z,2.85
2023-02-19T05:25:18.816Z,4.72
2023-02-19T05:27:47.780Z,2.15
2023-02-19T05:30:14.506Z,2.33
2023-02-19T05:32:44.019Z,2.17
2023-02-19T05:35:13.655Z,2.78
2023-02-19T05:37:43.317Z,1.98
2023-02-19T05:40:10.307Z,2.38
2023-02-19T05:42:39.192Z,2.75
2023-02-19T05:45:08.898Z,2.90
2023-02-19T05:47:35.493Z,2.83
2023-02-19T05:50:04.553Z,2.35
2023-02-19T05:55:00.812Z,2.60
2023-02-19T05:57:32.475Z,3.83
2023-02-19T05:59:59.107Z,3.60
2023-02-19T06:02:34.577Z,2.60
2023-02-19T06:05:01.280Z,3.42
2023-02-19T06:07:30.230Z,3.40
2023-02-19T06:09:56.987Z,2.20
2023-02-19T06:12:26.064Z,2.83
2023-02-19T06:17:21.360Z,2.35
2023-02-19T06:19:48.162Z,2.42
2023-02-19T06:22:16.181Z,3.45
2023-02-19T06:24:43.231Z,5.95
2023-02-19T06:27:10.140Z,4.00
2023-02-19T06:29:39.475Z,2.88
2023-02-19T06:32:09.310Z,2.88
2023-02-19T06:34:36.527Z,3.08
2023-02-19T06:37:08.070Z,3.38
2023-02-19T06:39:37.055Z,3.65
2023-02-19T06:42:03.863Z,4.10
2023-02-19T06:44:32.942Z,3.35
2023-02-19T06:49:31.267Z,3.17
2023-02-19T06:52:02.323Z,3.50
2023-02-19T06:54:31.554Z,4.35
2023-02-19T06:57:00.665Z,4.20
2023-02-19T07:01:54.022Z,3.70
2023-02-19T07:04:20.671Z,3.95
2023-02-19T07:06:47.243Z,4.22
2023-02-19T07:09:14.047Z,4.43
2023-02-19T07:11:43.534Z,4.50
2023-02-19T07:14:17.989Z,3.65
2023-02-19T07:16:47.452Z,4.22
2023-02-19T07:19:16.810Z,13.00
2023-02-19T07:21:48.554Z,9.45
2023-02-19T07:24:21.721Z,6.40
2023-02-19T07:26:50.806Z,6.97
2023-02-19T07:31:44.316Z,8.77
2023-02-19T07:34:11.034Z,7.13
2023-02-19T07:36:40.588Z,6.95
2023-02-19T07:39:15.854Z,7.07
2023-02-19T07:41:45.025Z,8.93
2023-02-19T07:44:13.768Z,11.60
2023-02-19T07:46:40.386Z,11.45
2023-02-19T07:49:07.328Z,12.02
2023-02-19T07:51:36.157Z,11.80
2023-02-19T07:54:05.506Z,11.48
2023-02-19T07:56:34.281Z,10.57
2023-02-19T07:59:03.592Z,14.45
2023-02-19T08:02:06.077Z,11.50
2023-02-19T08:04:36.095Z,13.60
2023-02-19T08:07:05.995Z,13.05
2023-02-19T08:09:33.888Z,18.73
2023-02-19T08:12:32.215Z,14.75
2023-02-19T08:15:00.986Z,15.38
2023-02-19T08:17:27.770Z,14.73
2023-02-19T08:19:54.482Z,14.38
2023-02-19T08:22:23.805Z,13.30
2023-02-19T08:24:52.721Z,12.15
2023-02-19T08:27:21.710Z,11.35
2023-02-19T08:29:48.306Z,4.93
2023-02-19T08:32:14.957Z,5.90
2023-02-19T08:34:41.649Z,4.75
2023-02-19T08:37:08.212Z,4.18
2023-02-19T08:39:37.357Z,5.05
2023-02-19T08:42:03.989Z,5.32
2023-02-19T08:44:30.533Z,4.90
2023-02-19T08:46:57.225Z,4.85
2023-02-19T08:49:27.172Z,4.80
2023-02-19T08:51:56.331Z,6.25
2023-02-19T08:54:25.411Z,5.28
2023-02-19T08:59:21.280Z,6.50
2023-02-19T09:01:50.082Z,9.27
2023-02-19T09:04:16.700Z,8.70
2023-02-19T09:06:51.111Z,7.57
2023-02-19T09:09:18.063Z,7.25
2023-02-19T09:11:44.852Z,9.27
2023-02-19T09:14:13.769Z,9.55
2023-02-19T09:16:42.901Z,8.88
2023-02-19T09:21:38.441Z,9.32
2023-02-19T09:24:08.831Z,9.25
2023-02-19T09:26:38.745Z,10.98
2023-02-19T09:29:05.514Z,11.15
2023-02-19T09:31:37.447Z,13.68
2023-02-19T09:34:05.845Z,12.40
2023-02-19T09:36:35.320Z,13.10
2023-02-19T09:39:06.708Z,14.13
2023-02-19T09:41:37.940Z,17.00
2023-02-19T09:44:09.781Z,18.50
2023-02-19T09:46:44.104Z,16.75
2023-02-19T09:49:15.929Z,17.85
2023-02-19T09:51:54.027Z,15.10
2023-02-19T09:54:26.409Z,16.85
2023-02-19T09:56:59.967Z,16.67
2023-02-19T09:59:44.846Z,22.70
2023-02-19T10:02:31.607Z,18.83
2023-02-19T10:05:01.803Z,20.88
2023-02-19T10:07:50.375Z,17.45
2023-02-19T10:10:17.952Z,22.92
2023-02-19T10:12:51.189Z,18.48
2023-02-19T10:15:28.059Z,18.50
2023-02-19T10:17:57.541Z,21.88
2023-02-19T10:20:30.208Z,21.80
2023-02-19T10:23:09.312Z,15.73
2023-02-19T10:25:41.509Z,19.15
2023-02-19T10:28:15.169Z,12.30
2023-02-19T10:30:41.887Z,10.18
2023-02-19T10:33:15.253Z,10.63
2023-02-19T10:35:56.228Z,9.63
2023-02-19T10:38:46.968Z,10.30
2023-02-19T10:41:21.388Z,8.30
2023-02-19T10:43:56.390Z,9.18
2023-02-19T10:46:35.930Z,9.20
2023-02-19T10:49:12.917Z,7.93
2023-02-19T10:51:41.480Z,5.93
2023-02-19T10:54:18.426Z,6.97
2023-02-19T10:56:47.314Z,7.53
2023-02-19T10:59:30.076Z,5.93
2023-02-19T11:02:02.571Z,5.30
2023-02-19T11:04:34.226Z,4.45
2023-02-19T11:07:19.635Z,5.00
2023-02-19T11:09:53.923Z,3.80
2023-02-19T11:12:29.589Z,4.05
2023-02-19T11:15:00.638Z,5.10
2023-02-19T11:17:31.402Z,4.88
2023-02-19T11:20:07.619Z,3.97
2023-02-19T11:22:37.517Z,3.33
2023-02-19T11:25:09.994Z,3.55
2023-02-19T11:28:08.212Z,3.08
2023-02-19T11:30:45.869Z,4.10
2023-02-19T11:33:27.559Z,3.22
2023-02-19T11:36:17.986Z,3.28
2023-02-19T11:38:47.298Z,3.60
2023-02-19T11:41:35.408Z,4.25
2023-02-19T11:44:12.499Z,4.57
2023-02-19T11:46:42.175Z,4.57
2023-02-19T11:49:25.289Z,4.93
2023-02-19T11:52:12.067Z,4.47
2023-02-19T11:54:57.906Z,3.83
2023-02-19T11:57:27.378Z,4.07
2023-02-19T12:00:12.676Z,4.70
2023-02-19T12:02:54.275Z,5.65
2023-02-19T12:05:35.488Z,3.90
2023-02-19T12:08:13.921Z,4.07
2023-02-19T12:11:05.535Z,3.88
2023-02-19T12:14:07.804Z,4.50
2023-02-19T12:16:39.583Z,4.60
2023-02-19T12:19:37.649Z,4.50
2023-02-19T12:22:19.173Z,4.47
2023-02-19T12:25:30.645Z,2.95
2023-02-19T12:28:29.206Z,4.60
2023-02-19T12:31:13.930Z,4.22
2023-02-19T12:34:51.728Z,2.85
2023-02-19T12:37:46.300Z,2.63
2023-02-19T12:40:22.116Z,4.07
2023-02-19T12:43:07.813Z,2.40
2023-02-19T12:45:46.860Z,3.08
2023-02-19T12:48:34.196Z,3.50
2023-02-19T12:51:25.615Z,2.60
2023-02-19T12:54:13.847Z,3.33
2023-02-19T12:56:45.812Z,3.13
2023-02-19T12:59:23.798Z,2.72
2023-02-19T13:02:26.930Z,3.30
2023-02-19T13:05:11.266Z,0.98
2023-02-19T13:07:59.829Z,1.83
2023-02-19T13:10:37.733Z,1.58
2023-02-19T13:13:12.540Z,2.10
2023-02-19T13:15:46.465Z,2.20
2023-02-19T13:18:19.017Z,4.15
2023-02-19T13:20:51.890Z,1.80
2023-02-19T13:23:48.704Z,1.60
2023-02-19T13:26:21.323Z,2.42
2023-02-19T13:29:06.428Z,2.28
2023-02-19T13:31:42.245Z,2.15
2023-02-19T13:34:24.303Z,1.98
2023-02-19T13:36:51.354Z,2.60
2023-02-19T13:39:22.648Z,2.83
2023-02-19T13:41:55.077Z,2.45
2023-02-19T13:44:33.605Z,2.78
2023-02-19T13:47:06.479Z,2.45
2023-02-19T13:49:34.010Z,1.48
2023-02-19T13:52:22.240Z,1.80
2023-02-19T13:54:48.860Z,2.35
2023-02-19T13:57:28.291Z,1.90
2023-02-19T13:59:58.581Z,0.77
2023-02-19T14:02:32.359Z,1.08
2023-02-19T14:05:03.628Z,2.08
2023-02-19T14:07:51.205Z,2.17
2023-02-19T14:13:06.117Z,3.38
2023-02-19T14:15:52.551Z,2.83
2023-02-19T14:18:45.485Z,1.40
2023-02-19T14:21:43.847Z,2.28
2023-02-19T14:24:17.385Z,3.53
2023-02-19T14:26:47.429Z,2.30
2023-02-19T14:29:17.722Z,2.20
2023-02-19T14:31:46.117Z,1.80
2023-02-19T14:34:22.731Z,3.17
2023-02-19T14:37:02.239Z,2.97
2023-02-19T14:39:35.204Z,2.90
2023-02-19T14:42:17.864Z,2.03
2023-02-19T14:44:52.546Z,2.65
2023-02-19T14:47:22.755Z,3.38
2023-02-19T14:49:55.138Z,4.43
2023-02-19T14:52:25.118Z,2.58
2023-02-19T14:55:00.312Z,1.27
2023-02-19T14:57:43.470Z,2.78
2023-02-19T15:00:22.409Z,0.77
2023-02-19T15:02:59.898Z,1.95
2023-02-19T15:05:40.272Z,2.63
2023-02-19T15:08:12.038Z,1.75
2023-02-19T15:10:42.163Z,0.85
2023-02-19T15:13:17.800Z,1.50
2023-02-19T15:15:49.948Z,2.10
2023-02-19T15:18:30.011Z,0.77
2023-02-19T15:21:02.893Z,1.27
2023-02-19T15:23:31.481Z,1.52
2023-02-19T15:25:59.215Z,3.17
2023-02-19T15:28:28.703Z,2.72
2023-02-19T15:30:58.329Z,2.15
2023-02-19T15:33:32.320Z,1.75
2023-02-19T15:36:03.525Z,1.25
2023-02-19T15:38:30.999Z,1.63
2023-02-19T15:40:58.805Z,1.50
2023-02-19T15:43:33.887Z,0.98
2023-02-19T15:46:12.065Z,1.27
2023-02-19T15:48:47.724Z,1.92
2023-02-19T15:51:24.090Z,1.00
2023-02-19T15:53:59.022Z,2.65
2023-02-19T15:56:32.550Z,0.98
2023-02-19T15:59:21.584Z,1.40
2023-02-19T16:01:48.974Z,2.03
2023-02-19T16:04:23.058Z,1.48
2023-02-19T16:06:55.585Z,1.23
2023-02-19T16:09:31.318Z,1.50
2023-02-19T16:12:03.041Z,0.90
2023-02-19T16:14:34.516Z,0.73
2023-02-19T16:17:28.161Z,1.50
2023-02-19T16:20:00.885Z,1.38
2023-02-19T16:22:34.776Z,1.50
2023-02-19T16:25:04.914Z,1.42
2023-02-19T16:27:37.011Z,1.38
2023-02-19T16:30:07.799Z,2.10
2023-02-19T16:32:34.673Z,0.90
2023-02-19T16:35:01.339Z,1.35
2023-02-19T16:37:40.834Z,1.25
2023-02-19T16:40:11.115Z,1.50
2023-02-19T16:43:13.300Z,1.13
2023-02-19T16:45:50.531Z,0.85
2023-02-19T16:48:20.303Z,0.70
2023-02-19T16:50:46.990Z,2.83
2023-02-19T16:53:24.790Z,1.00
2023-02-19T16:55:52.539Z,0.88
2023-02-19T16:58:21.545Z,1.00
2023-02-19T17:00:48.166Z,1.35
2023-02-19T17:03:22.570Z,2.75
2023-02-19T17:05:54.489Z,3.17
2023-02-19T17:08:33.888Z,2.28
2023-02-19T17:11:24.750Z,1.17
2023-02-19T17:13:51.512Z,2.33
2023-02-19T17:16:21.849Z,1.02
2023-02-19T17:18:51.879Z,1.10
2023-02-19T17:21:21.093Z,1.98
2023-02-19T17:26:15.532Z,1.98
2023-02-19T17:28:42.157Z,2.35
2023-02-19T17:31:11.319Z,1.48
2023-02-19T17:33:38.896Z,1.98
2023-02-19T17:36:06.148Z,0.95
2023-02-19T17:38:34.801Z,1.67
2023-02-19T17:41:03.982Z,1.52
2023-02-19T17:45:57.359Z,0.95
2023-02-19T17:48:24.419Z,2.35
2023-02-19T17:50:52.382Z,1.35
2023-02-19T17:53:21.236Z,0.68
2023-02-19T17:55:47.862Z,1.45
2023-02-19T17:58:17.209Z,1.08
2023-02-19T18:00:46.259Z,0.88
2023-02-19T18:03:15.524Z,0.60
2023-02-19T18:05:44.808Z,1.30
2023-02-19T18:08:11.946Z,1.40
2023-02-19T18:10:38.623Z,1.23
2023-02-19T18:13:07.558Z,1.42
2023-02-19T18:15:36.634Z,0.70
2023-02-19T18:20:41.597Z,1.63
2023-02-19T18:23:10.785Z,2.25
2023-02-19T18:25:37.449Z,0.93
2023-02-19T18:28:06.558Z,1.60
2023-02-19T18:33:07.468Z,1.48
2023-02-19T18:35:34.923Z,1.60
2023-02-19T18:38:03.782Z,1.75
2023-02-19T18:40:32.870Z,2.03
2023-02-19T18:43:01.798Z,1.42
2023-02-19T18:45:29.829Z,1.75
2023-02-19T18:47:59.205Z,2.97
2023-02-19T18:50:28.771Z,1.15
2023-02-19T18:53:00.270Z,1.70
2023-02-19T18:55:29.216Z,1.90
2023-02-19T18:57:58.560Z,1.55
2023-02-19T19:04:17.739Z,1.52
2023-02-19T19:06:46.841Z,1.52
2023-02-19T19:09:15.704Z,2.13
2023-02-19T19:11:44.551Z,1.42
2023-02-19T19:14:11.374Z,1.75
2023-02-19T19:16:43.195Z,2.53
2023-02-19T19:19:11.047Z,1.30
2023-02-19T19:21:37.942Z,1.77
2023-02-19T19:24:05.008Z,2.03
2023-02-19T19:26:32.152Z,2.60
2023-02-19T19:28:58.927Z,2.13
2023-02-19T19:31:26.367Z,2.28
2023-02-19T19:33:55.656Z,2.40
2023-02-19T19:36:25.747Z,3.13
2023-02-19T19:38:52.580Z,2.58
2023-02-19T19:41:20.336Z,2.83
2023-02-19T19:43:51.965Z,2.80
2023-02-19T19:46:19.957Z,3.35
2023-02-19T19:48:48.037Z,2.60
2023-02-19T19:51:14.941Z,2.90
2023-02-19T19:53:47.426Z,2.03
2023-02-19T19:56:14.652Z,1.70
2023-02-19T19:58:45.817Z,2.42
2023-02-19T20:01:12.826Z,2.30
2023-02-19T20:03:42.208Z,3.55
2023-02-19T20:08:35.820Z,1.83
2023-02-19T20:11:03.385Z,2.33
2023-02-19T20:13:31.112Z,2.70
2023-02-19T20:16:00.129Z,5.43
2023-02-19T20:18:27.625Z,2.63
2023-02-19T20:20:54.217Z,2.83
2023-02-19T20:23:20.889Z,3.33
2023-02-19T20:25:49.967Z,3.10
2023-02-19T20:28:17.017Z,2.25
2023-02-19T20:30:43.899Z,2.63
2023-02-19T20:33:10.770Z,3.28
2023-02-19T20:35:40.722Z,2.90
2023-02-19T20:38:09.648Z,2.15
2023-02-19T20:40:36.316Z,2.95
2023-02-19T20:43:05.270Z,2.92
2023-02-19T20:45:34.045Z,4.38
2023-02-19T20:48:01.402Z,4.25
2023-02-19T20:50:30.359Z,3.13
2023-02-19T20:52:59.711Z,4.20
2023-02-19T20:55:29.774Z,4.07
2023-02-19T20:57:58.879Z,2.78
2023-02-19T21:00:28.103Z,4.72
2023-02-19T21:05:26.299Z,2.75
2023-02-19T21:10:27.128Z,2.38
2023-02-19T21:12:54.530Z,3.20
2023-02-19T21:15:23.900Z,3.05
2023-02-19T21:17:50.567Z,2.13
2023-02-19T21:20:22.798Z,3.25
2023-02-19T21:22:51.636Z,3.20
2023-02-19T21:25:20.941Z,2.97
2023-02-19T21:27:47.526Z,3.20
2023-02-19T21:30:16.501Z,2.85
2023-02-19T21:32:43.191Z,3.17
2023-02-19T21:35:10.247Z,3.70
2023-02-19T21:37:41.984Z,3.10
2023-02-19T21:40:11.806Z,3.05
2023-02-19T21:42:38.563Z,3.20
2023-02-19T21:45:05.762Z,2.88
2023-02-19T21:47:32.472Z,2.97
2023-02-19T21:50:01.425Z,2.45
2023-02-19T21:52:31.522Z,2.97
2023-02-19T21:54:58.542Z,3.95
2023-02-19T21:57:27.327Z,4.50
2023-02-19T21:59:56.809Z,3.40
2023-02-19T22:02:25.766Z,3.20
2023-02-19T22:04:53.734Z,2.58
2023-02-19T22:07:30.708Z,3.35
2023-02-19T22:09:59.676Z,2.05
2023-02-19T22:12:28.646Z,2.30
2023-02-19T22:14:57.646Z,2.72
2023-02-19T22:17:24.321Z,3.63
2023-02-19T22:19:50.941Z,1.92
2023-02-19T22:22:17.569Z,3.03
2023-02-19T22:24:44.468Z,2.22
2023-02-19T22:27:13.590Z,3.50
2023-02-19T22:29:40.320Z,3.67
2023-02-19T22:32:07.367Z,2.83
2023-02-19T22:34:43.189Z,3.42
2023-02-19T22:37:13.051Z,2.38
2023-02-19T22:39:39.831Z,2.33
2023-02-19T22:42:06.640Z,2.50
2023-02-19T22:44:34.500Z,2.40
2023-02-19T22:47:01.114Z,3.45
2023-02-19T22:49:27.685Z,2.78
2023-02-19T22:52:03.574Z,3.88
2023-02-19T22:54:32.408Z,4.03
2023-02-19T22:57:01.389Z,2.22
2023-02-19T22:59:28.096Z,2.13
2023-02-19T23:01:55.100Z,2.60
2023-02-19T23:04:25.282Z,1.75
2023-02-19T23:06:54.733Z,2.88
2023-02-19T23:09:28.234Z,3.30
2023-02-19T23:12:07.240Z,3.30
2023-02-19T23:14:38.747Z,3.38
2023-02-19T23:17:08.100Z,3.15
2023-02-19T23:19:39.576Z,3.08
2023-02-19T23:22:08.710Z,3.22
2023-02-19T23:24:35.320Z,3.78
2023-02-19T23:27:02.122Z,2.78
2023-02-19T23:29:31.006Z,2.72
2023-02-19T23:31:58.549Z,2.58
2023-02-19T23:34:25.165Z,4.00
2023-02-19T23:36:52.092Z,3.20
2023-02-19T23:39:21.284Z,2.60
2023-02-19T23:41:56.719Z,3.00
2023-02-19T23:46:53.256Z,3.33
2023-02-19T23:49:20.042Z,4.90
2023-02-19T23:51:49.128Z,2.40
2023-02-19T23:54:18.177Z,3.55
2023-02-19T23:56:47.367Z,3.00
2023-02-19T23:59:14.278Z,2.00
